To NAV CANADA Home Page Login to a new session Search on AWWS site Feedback and Comments Disclaimer Vers la page française équivalente Tips FAQ What's new on the site To the Forecasts and Observations / NOTAM section To "File a Flight Plan" website Publications and other links Update of the User's profile FIC Telephone Numbers My Weather Data Folder Route Weather Data Regional Weather Data Local Weather Data To the Forecasts and Observations / NOTAM section
Request Generated 04/18/2015 at 08:45:04 UTC . Weather information available at that time is displayed.

METAR/TAF

STEPHENVILLE/NL    

SPECI CYJT 180839Z 24004KT 10SM BR FEW007 OVC024 M00/M01 A2961 RMK
SF2SC6 SLP029=
METAR CYJT 180800Z 12003KT 12SM FEW008 OVC020 M00/M01 A2960 RMK
SF1SC7 SLP023=
METAR CYJT 180700Z 06002KT 12SM FEW008 OVC019 M01/M02 A2960 RMK
SF1SC7 SLP024=
METAR CYJT 180600Z 07003KT 15SM BKN028 M02/M02 A2960 RMK SC7 SLP025=

TAF CYJT 180538Z 1806/1906 VRB03KT P6SM BKN030 TEMPO 1806/1814 3SM
-SN OVC015 PROB30 1806/1810 3SM -FZRA BR
FM181400 04010KT P6SM OVC025 TEMPO 1814/1824 4SM -SHSN OVC020
BECMG 1820/1822 01010KT
FM190200 02005KT P6SM BKN030
RMK NXT FCST BY 181200Z=
Your time UTC time
Weather data provided by Environment Canada and NAV CANADA